sensor_id;sensor_type;location;lat;lon;timestamp;P1;durP1;ratioP1;P2;durP2;ratioP2
69856;SDS011;57147;53.582;10.112;2023-02-17T00:04:07;34.15;;;26.00;;
69856;SDS011;57147;53.582;10.112;2023-02-17T00:09:07;31.27;;;26.08;;
69856;SDS011;57147;53.582;10.112;2023-02-17T00:14:08;34.17;;;24.63;;
69856;SDS011;57147;53.582;10.112;2023-02-17T00:19:13;30.85;;;23.42;;
69856;SDS011;57147;53.582;10.112;2023-02-17T00:24:14;32.10;;;23.83;;
69856;SDS011;57147;53.582;10.112;2023-02-17T00:29:14;31.95;;;24.40;;
69856;SDS011;57147;53.582;10.112;2023-02-17T00:34:18;29.80;;;23.52;;
69856;SDS011;57147;53.582;10.112;2023-02-17T00:39:19;31.33;;;24.65;;
69856;SDS011;57147;53.582;10.112;2023-02-17T00:44:20;34.28;;;26.33;;
69856;SDS011;57147;53.582;10.112;2023-02-17T00:49:25;34.67;;;23.85;;
69856;SDS011;57147;53.582;10.112;2023-02-17T00:54:26;30.60;;;24.55;;
69856;SDS011;57147;53.582;10.112;2023-02-17T00:59:27;33.35;;;25.13;;
69856;SDS011;57147;53.582;10.112;2023-02-17T01:04:30;32.58;;;24.15;;
69856;SDS011;57147;53.582;10.112;2023-02-17T01:09:31;30.05;;;22.40;;
69856;SDS011;57147;53.582;10.112;2023-02-17T01:14:32;30.85;;;22.88;;
69856;SDS011;57147;53.582;10.112;2023-02-17T01:19:35;31.30;;;23.45;;
69856;SDS011;57147;53.582;10.112;2023-02-17T01:24:37;32.58;;;23.88;;
69856;SDS011;57147;53.582;10.112;2023-02-17T01:29:37;31.42;;;23.58;;
69856;SDS011;57147;53.582;10.112;2023-02-17T01:34:40;34.25;;;25.10;;
69856;SDS011;57147;53.582;10.112;2023-02-17T01:39:41;30.23;;;22.02;;
69856;SDS011;57147;53.582;10.112;2023-02-17T01:55:19;39.22;;;28.42;;
69856;SDS011;57147;53.582;10.112;2023-02-17T02:00:23;40.85;;;29.35;;
69856;SDS011;57147;53.582;10.112;2023-02-17T02:05:30;39.90;;;28.67;;
69856;SDS011;57147;53.582;10.112;2023-02-17T02:10:30;38.17;;;26.85;;
69856;SDS011;57147;53.582;10.112;2023-02-17T02:15:32;38.65;;;28.25;;
69856;SDS011;57147;53.582;10.112;2023-02-17T02:32:17;35.35;;;26.00;;
69856;SDS011;57147;53.582;10.112;2023-02-17T02:37:25;36.97;;;26.10;;
69856;SDS011;57147;53.582;10.112;2023-02-17T02:42:31;33.15;;;24.38;;
69856;SDS011;57147;53.582;10.112;2023-02-17T02:47:46;32.58;;;24.63;;
69856;SDS011;57147;53.582;10.112;2023-02-17T02:52:52;31.90;;;25.27;;
69856;SDS011;57147;53.582;10.112;2023-02-17T02:58:01;30.60;;;23.42;;
69856;SDS011;57147;53.582;10.112;2023-02-17T03:03:08;27.17;;;21.90;;
69856;SDS011;57147;53.582;10.112;2023-02-17T03:08:13;25.70;;;20.23;;
69856;SDS011;57147;53.582;10.112;2023-02-17T03:13:19;27.42;;;21.52;;
69856;SDS011;57147;53.582;10.112;2023-02-17T03:18:23;28.42;;;20.30;;
69856;SDS011;57147;53.582;10.112;2023-02-17T03:23:23;28.15;;;22.33;;
69856;SDS011;57147;53.582;10.112;2023-02-17T03:28:24;27.05;;;21.80;;
69856;SDS011;57147;53.582;10.112;2023-02-17T03:33:27;28.50;;;21.65;;
69856;SDS011;57147;53.582;10.112;2023-02-17T03:38:27;25.52;;;19.15;;
69856;SDS011;57147;53.582;10.112;2023-02-17T03:43:28;20.80;;;16.98;;
69856;SDS011;57147;53.582;10.112;2023-02-17T03:48:31;22.25;;;17.98;;
69856;SDS011;57147;53.582;10.112;2023-02-17T03:53:32;21.98;;;16.92;;
69856;SDS011;57147;53.582;10.112;2023-02-17T03:58:32;22.13;;;17.15;;
69856;SDS011;57147;53.582;10.112;2023-02-17T04:03:36;18.55;;;14.48;;
69856;SDS011;57147;53.582;10.112;2023-02-17T04:08:37;19.30;;;14.63;;
69856;SDS011;57147;53.582;10.112;2023-02-17T04:13:39;18.77;;;14.23;;
69856;SDS011;57147;53.582;10.112;2023-02-17T04:18:42;17.52;;;14.95;;
69856;SDS011;57147;53.582;10.112;2023-02-17T04:23:43;16.50;;;13.13;;
69856;SDS011;57147;53.582;10.112;2023-02-17T04:28:43;18.13;;;15.25;;
69856;SDS011;57147;53.582;10.112;2023-02-17T04:33:47;20.15;;;16.50;;
69856;SDS011;57147;53.582;10.112;2023-02-17T04:38:48;20.30;;;15.63;;
69856;SDS011;57147;53.582;10.112;2023-02-17T04:43:48;20.05;;;16.02;;
69856;SDS011;57147;53.582;10.112;2023-02-17T04:48:51;18.05;;;14.77;;
69856;SDS011;57147;53.582;10.112;2023-02-17T04:53:52;19.65;;;15.20;;
69856;SDS011;57147;53.582;10.112;2023-02-17T04:58:54;20.10;;;15.45;;
69856;SDS011;57147;53.582;10.112;2023-02-17T05:03:57;18.20;;;14.25;;
69856;SDS011;57147;53.582;10.112;2023-02-17T05:08:57;18.85;;;14.00;;
69856;SDS011;57147;53.582;10.112;2023-02-17T05:13:58;16.95;;;13.60;;
69856;SDS011;57147;53.582;10.112;2023-02-17T05:19:01;21.33;;;16.48;;
69856;SDS011;57147;53.582;10.112;2023-02-17T05:24:02;18.23;;;13.85;;
69856;SDS011;57147;53.582;10.112;2023-02-17T05:29:03;21.20;;;15.13;;
69856;SDS011;57147;53.582;10.112;2023-02-17T05:34:06;26.10;;;17.25;;
69856;SDS011;57147;53.582;10.112;2023-02-17T05:39:07;27.63;;;18.60;;
69856;SDS011;57147;53.582;10.112;2023-02-17T05:44:08;25.10;;;17.17;;
69856;SDS011;57147;53.582;10.112;2023-02-17T05:49:11;30.02;;;18.98;;
69856;SDS011;57147;53.582;10.112;2023-02-17T05:54:12;29.52;;;18.95;;
69856;SDS011;57147;53.582;10.112;2023-02-17T05:59:12;29.00;;;17.92;;
69856;SDS011;57147;53.582;10.112;2023-02-17T06:04:15;30.55;;;18.40;;
69856;SDS011;57147;53.582;10.112;2023-02-17T06:09:16;27.80;;;17.90;;
69856;SDS011;57147;53.582;10.112;2023-02-17T06:14:17;28.65;;;17.00;;
69856;SDS011;57147;53.582;10.112;2023-02-17T06:19:20;28.63;;;16.27;;
69856;SDS011;57147;53.582;10.112;2023-02-17T06:24:20;29.33;;;17.98;;
69856;SDS011;57147;53.582;10.112;2023-02-17T06:29:21;28.52;;;16.02;;
69856;SDS011;57147;53.582;10.112;2023-02-17T06:34:24;30.27;;;17.70;;
69856;SDS011;57147;53.582;10.112;2023-02-17T06:39:25;32.63;;;17.55;;
69856;SDS011;57147;53.582;10.112;2023-02-17T06:44:28;31.35;;;18.67;;
69856;SDS011;57147;53.582;10.112;2023-02-17T06:49:31;33.63;;;19.85;;
69856;SDS011;57147;53.582;10.112;2023-02-17T06:54:31;29.55;;;16.45;;
69856;SDS011;57147;53.582;10.112;2023-02-17T06:59:32;31.63;;;18.45;;
69856;SDS011;57147;53.582;10.112;2023-02-17T07:04:35;39.25;;;21.65;;
69856;SDS011;57147;53.582;10.112;2023-02-17T07:09:36;35.08;;;19.63;;
69856;SDS011;57147;53.582;10.112;2023-02-17T07:14:37;35.80;;;20.15;;
69856;SDS011;57147;53.582;10.112;2023-02-17T07:19:40;37.47;;;21.05;;
69856;SDS011;57147;53.582;10.112;2023-02-17T07:24:44;36.42;;;19.13;;
69856;SDS011;57147;53.582;10.112;2023-02-17T07:29:45;36.42;;;20.05;;
69856;SDS011;57147;53.582;10.112;2023-02-17T07:34:48;35.35;;;20.65;;
69856;SDS011;57147;53.582;10.112;2023-02-17T07:39:49;36.28;;;19.92;;
69856;SDS011;57147;53.582;10.112;2023-02-17T07:44:50;37.47;;;20.70;;
69856;SDS011;57147;53.582;10.112;2023-02-17T07:49:54;37.67;;;21.30;;
69856;SDS011;57147;53.582;10.112;2023-02-17T07:54:54;39.10;;;22.20;;
69856;SDS011;57147;53.582;10.112;2023-02-17T07:59:55;37.20;;;20.92;;
69856;SDS011;57147;53.582;10.112;2023-02-17T08:04:58;37.03;;;20.60;;
69856;SDS011;57147;53.582;10.112;2023-02-17T08:09:59;39.83;;;23.85;;
69856;SDS011;57147;53.582;10.112;2023-02-17T08:15:00;38.65;;;21.85;;
69856;SDS011;57147;53.582;10.112;2023-02-17T08:20:03;35.70;;;19.63;;
69856;SDS011;57147;53.582;10.112;2023-02-17T08:30:07;32.58;;;18.20;;
69856;SDS011;57147;53.582;10.112;2023-02-17T08:35:11;24.98;;;14.88;;
69856;SDS011;57147;53.582;10.112;2023-02-17T08:40:12;27.70;;;16.15;;
69856;SDS011;57147;53.582;10.112;2023-02-17T08:45:12;25.10;;;15.38;;
69856;SDS011;57147;53.582;10.112;2023-02-17T08:50:16;28.92;;;16.73;;
69856;SDS011;57147;53.582;10.112;2023-02-17T08:55:17;26.02;;;14.68;;
69856;SDS011;57147;53.582;10.112;2023-02-17T09:00:18;26.88;;;14.95;;
69856;SDS011;57147;53.582;10.112;2023-02-17T09:05:21;28.45;;;16.35;;
69856;SDS011;57147;53.582;10.112;2023-02-17T09:10:22;28.65;;;16.25;;
69856;SDS011;57147;53.582;10.112;2023-02-17T09:15:22;30.77;;;15.75;;
69856;SDS011;57147;53.582;10.112;2023-02-17T09:20:26;29.95;;;17.05;;
69856;SDS011;57147;53.582;10.112;2023-02-17T09:25:27;30.85;;;17.40;;
69856;SDS011;57147;53.582;10.112;2023-02-17T09:30:27;24.17;;;14.93;;
69856;SDS011;57147;53.582;10.112;2023-02-17T09:35:31;25.50;;;16.23;;
69856;SDS011;57147;53.582;10.112;2023-02-17T09:40:35;25.77;;;14.32;;
69856;SDS011;57147;53.582;10.112;2023-02-17T09:45:41;23.45;;;14.05;;
69856;SDS011;57147;53.582;10.112;2023-02-17T09:50:52;25.23;;;14.45;;
69856;SDS011;57147;53.582;10.112;2023-02-17T09:55:55;25.52;;;14.27;;
69856;SDS011;57147;53.582;10.112;2023-02-17T10:00:58;24.08;;;13.70;;
69856;SDS011;57147;53.582;10.112;2023-02-17T10:06:07;22.00;;;12.38;;
69856;SDS011;57147;53.582;10.112;2023-02-17T10:11:15;24.20;;;13.73;;
69856;SDS011;57147;53.582;10.112;2023-02-17T10:16:27;25.42;;;14.63;;
69856;SDS011;57147;53.582;10.112;2023-02-17T10:26:48;23.05;;;12.45;;
69856;SDS011;57147;53.582;10.112;2023-02-17T10:32:00;23.58;;;13.23;;
69856;SDS011;57147;53.582;10.112;2023-02-17T10:37:13;28.90;;;15.82;;
69856;SDS011;57147;53.582;10.112;2023-02-17T10:42:19;28.17;;;14.82;;
69856;SDS011;57147;53.582;10.112;2023-02-17T10:47:23;31.33;;;14.73;;
69856;SDS011;57147;53.582;10.112;2023-02-17T10:52:26;32.55;;;14.32;;
69856;SDS011;57147;53.582;10.112;2023-02-17T10:57:36;28.55;;;14.15;;
69856;SDS011;57147;53.582;10.112;2023-02-17T11:02:40;33.47;;;17.90;;
69856;SDS011;57147;53.582;10.112;2023-02-17T11:07:45;38.33;;;16.25;;
69856;SDS011;57147;53.582;10.112;2023-02-17T11:12:46;33.55;;;16.17;;
69856;SDS011;57147;53.582;10.112;2023-02-17T11:17:47;31.58;;;18.60;;
69856;SDS011;57147;53.582;10.112;2023-02-17T11:23:00;28.83;;;13.85;;
69856;SDS011;57147;53.582;10.112;2023-02-17T11:33:11;27.55;;;13.90;;
69856;SDS011;57147;53.582;10.112;2023-02-17T11:38:15;31.48;;;13.52;;
69856;SDS011;57147;53.582;10.112;2023-02-17T11:43:17;26.52;;;12.80;;
69856;SDS011;57147;53.582;10.112;2023-02-17T11:53:55;33.75;;;14.27;;
69856;SDS011;57147;53.582;10.112;2023-02-17T11:59:15;31.27;;;14.77;;
69856;SDS011;57147;53.582;10.112;2023-02-17T12:04:25;24.30;;;11.20;;
69856;SDS011;57147;53.582;10.112;2023-02-17T12:09:32;28.40;;;12.35;;
69856;SDS011;57147;53.582;10.112;2023-02-17T12:14:43;33.47;;;13.43;;
69856;SDS011;57147;53.582;10.112;2023-02-17T12:19:59;38.40;;;12.25;;
69856;SDS011;57147;53.582;10.112;2023-02-17T12:25:17;27.73;;;11.05;;
69856;SDS011;57147;53.582;10.112;2023-02-17T12:30:26;25.80;;;11.80;;
69856;SDS011;57147;53.582;10.112;2023-02-17T12:35:44;25.65;;;12.40;;
69856;SDS011;57147;53.582;10.112;2023-02-17T12:40:52;31.50;;;12.18;;
69856;SDS011;57147;53.582;10.112;2023-02-17T12:45:58;25.58;;;10.88;;
69856;SDS011;57147;53.582;10.112;2023-02-17T12:51:03;26.10;;;12.07;;
69856;SDS011;57147;53.582;10.112;2023-02-17T12:56:28;25.38;;;10.80;;
69856;SDS011;57147;53.582;10.112;2023-02-17T13:01:51;22.80;;;10.15;;
69856;SDS011;57147;53.582;10.112;2023-02-17T13:07:01;23.23;;;9.10;;
69856;SDS011;57147;53.582;10.112;2023-02-17T13:12:32;22.73;;;12.02;;
69856;SDS011;57147;53.582;10.112;2023-02-17T13:17:50;16.58;;;8.10;;
69856;SDS011;57147;53.582;10.112;2023-02-17T13:23:04;13.50;;;6.07;;
69856;SDS011;57147;53.582;10.112;2023-02-17T13:33:40;13.07;;;5.57;;
69856;SDS011;57147;53.582;10.112;2023-02-17T13:38:51;15.27;;;8.43;;
69856;SDS011;57147;53.582;10.112;2023-02-17T13:43:58;14.57;;;7.20;;
69856;SDS011;57147;53.582;10.112;2023-02-17T13:49:05;13.52;;;7.38;;
69856;SDS011;57147;53.582;10.112;2023-02-17T13:54:07;13.10;;;7.13;;
69856;SDS011;57147;53.582;10.112;2023-02-17T13:59:13;15.07;;;7.40;;
69856;SDS011;57147;53.582;10.112;2023-02-17T14:04:21;16.73;;;7.60;;
69856;SDS011;57147;53.582;10.112;2023-02-17T14:09:25;14.77;;;6.82;;
69856;SDS011;57147;53.582;10.112;2023-02-17T14:19:42;14.32;;;5.97;;
69856;SDS011;57147;53.582;10.112;2023-02-17T14:24:44;8.75;;;3.22;;
69856;SDS011;57147;53.582;10.112;2023-02-17T14:29:47;8.88;;;3.42;;
69856;SDS011;57147;53.582;10.112;2023-02-17T14:34:49;9.13;;;3.80;;
69856;SDS011;57147;53.582;10.112;2023-02-17T14:39:49;10.73;;;2.50;;
69856;SDS011;57147;53.582;10.112;2023-02-17T14:44:53;4.88;;;0.70;;
69856;SDS011;57147;53.582;10.112;2023-02-17T14:49:53;9.98;;;1.25;;
69856;SDS011;57147;53.582;10.112;2023-02-17T14:54:54;11.43;;;2.15;;
69856;SDS011;57147;53.582;10.112;2023-02-17T14:59:57;11.63;;;2.05;;
69856;SDS011;57147;53.582;10.112;2023-02-17T15:04:57;11.60;;;2.45;;
69856;SDS011;57147;53.582;10.112;2023-02-17T15:09:58;13.60;;;1.92;;
69856;SDS011;57147;53.582;10.112;2023-02-17T15:15:01;11.82;;;2.38;;
69856;SDS011;57147;53.582;10.112;2023-02-17T15:20:03;14.15;;;3.85;;
69856;SDS011;57147;53.582;10.112;2023-02-17T15:25:08;16.52;;;2.38;;
69856;SDS011;57147;53.582;10.112;2023-02-17T15:30:14;15.98;;;2.83;;
69856;SDS011;57147;53.582;10.112;2023-02-17T15:35:17;14.57;;;2.50;;
69856;SDS011;57147;53.582;10.112;2023-02-17T15:40:20;13.25;;;2.42;;
69856;SDS011;57147;53.582;10.112;2023-02-17T15:45:24;17.58;;;3.00;;
69856;SDS011;57147;53.582;10.112;2023-02-17T15:50:25;15.00;;;2.83;;
69856;SDS011;57147;53.582;10.112;2023-02-17T15:55:25;19.38;;;3.05;;
69856;SDS011;57147;53.582;10.112;2023-02-17T16:00:30;20.25;;;2.67;;
69856;SDS011;57147;53.582;10.112;2023-02-17T16:05:32;17.83;;;2.33;;
69856;SDS011;57147;53.582;10.112;2023-02-17T16:10:33;15.32;;;2.97;;
69856;SDS011;57147;53.582;10.112;2023-02-17T16:15:38;14.48;;;2.03;;
69856;SDS011;57147;53.582;10.112;2023-02-17T16:20:39;20.38;;;3.65;;
69856;SDS011;57147;53.582;10.112;2023-02-17T16:25:40;16.35;;;2.50;;
69856;SDS011;57147;53.582;10.112;2023-02-17T16:30:45;16.38;;;2.55;;
69856;SDS011;57147;53.582;10.112;2023-02-17T16:35:48;18.38;;;5.55;;
69856;SDS011;57147;53.582;10.112;2023-02-17T16:40:50;20.40;;;7.32;;
69856;SDS011;57147;53.582;10.112;2023-02-17T16:45:55;16.13;;;5.65;;
69856;SDS011;57147;53.582;10.112;2023-02-17T16:51:00;17.45;;;3.95;;
69856;SDS011;57147;53.582;10.112;2023-02-17T16:56:01;18.38;;;4.20;;
69856;SDS011;57147;53.582;10.112;2023-02-17T17:01:15;17.15;;;4.68;;
69856;SDS011;57147;53.582;10.112;2023-02-17T17:06:17;18.90;;;5.55;;
69856;SDS011;57147;53.582;10.112;2023-02-17T17:11:21;15.48;;;3.78;;
69856;SDS011;57147;53.582;10.112;2023-02-17T17:16:26;19.02;;;5.13;;
69856;SDS011;57147;53.582;10.112;2023-02-17T17:21:29;18.33;;;7.88;;
69856;SDS011;57147;53.582;10.112;2023-02-17T17:26:31;17.20;;;4.97;;
69856;SDS011;57147;53.582;10.112;2023-02-17T17:31:36;19.98;;;5.10;;
69856;SDS011;57147;53.582;10.112;2023-02-17T17:36:38;16.42;;;4.35;;
69856;SDS011;57147;53.582;10.112;2023-02-17T17:41:40;17.48;;;4.45;;
69856;SDS011;57147;53.582;10.112;2023-02-17T17:46:43;20.23;;;6.88;;
69856;SDS011;57147;53.582;10.112;2023-02-17T17:51:44;19.88;;;5.47;;
69856;SDS011;57147;53.582;10.112;2023-02-17T17:56:45;15.70;;;3.40;;
69856;SDS011;57147;53.582;10.112;2023-02-17T18:01:49;24.45;;;5.68;;
69856;SDS011;57147;53.582;10.112;2023-02-17T18:06:50;14.18;;;4.90;;
69856;SDS011;57147;53.582;10.112;2023-02-17T18:11:57;20.67;;;3.53;;
69856;SDS011;57147;53.582;10.112;2023-02-17T18:17:03;14.68;;;3.83;;
69856;SDS011;57147;53.582;10.112;2023-02-17T18:22:04;19.27;;;6.18;;
69856;SDS011;57147;53.582;10.112;2023-02-17T18:27:04;18.50;;;5.40;;
69856;SDS011;57147;53.582;10.112;2023-02-17T18:32:08;19.88;;;5.60;;
69856;SDS011;57147;53.582;10.112;2023-02-17T18:37:08;20.85;;;5.65;;
69856;SDS011;57147;53.582;10.112;2023-02-17T18:42:09;17.60;;;5.10;;
69856;SDS011;57147;53.582;10.112;2023-02-17T18:47:12;20.92;;;3.92;;
69856;SDS011;57147;53.582;10.112;2023-02-17T18:52:13;23.00;;;4.63;;
69856;SDS011;57147;53.582;10.112;2023-02-17T18:57:14;19.73;;;4.15;;
69856;SDS011;57147;53.582;10.112;2023-02-17T19:02:17;18.15;;;6.35;;
69856;SDS011;57147;53.582;10.112;2023-02-17T19:07:17;19.00;;;5.53;;
69856;SDS011;57147;53.582;10.112;2023-02-17T19:12:18;17.92;;;6.00;;
69856;SDS011;57147;53.582;10.112;2023-02-17T19:17:22;20.63;;;4.57;;
69856;SDS011;57147;53.582;10.112;2023-02-17T19:22:24;20.70;;;5.63;;
69856;SDS011;57147;53.582;10.112;2023-02-17T19:27:25;22.52;;;6.65;;
69856;SDS011;57147;53.582;10.112;2023-02-17T19:32:28;25.30;;;14.77;;
69856;SDS011;57147;53.582;10.112;2023-02-17T19:37:28;30.52;;;7.03;;
69856;SDS011;57147;53.582;10.112;2023-02-17T19:42:29;22.27;;;5.28;;
69856;SDS011;57147;53.582;10.112;2023-02-17T19:47:32;23.58;;;5.38;;
69856;SDS011;57147;53.582;10.112;2023-02-17T19:52:35;19.17;;;6.13;;
69856;SDS011;57147;53.582;10.112;2023-02-17T19:57:36;24.38;;;9.05;;
69856;SDS011;57147;53.582;10.112;2023-02-17T20:02:39;20.30;;;3.60;;
69856;SDS011;57147;53.582;10.112;2023-02-17T20:07:40;21.05;;;6.45;;
69856;SDS011;57147;53.582;10.112;2023-02-17T20:12:40;20.88;;;6.88;;
69856;SDS011;57147;53.582;10.112;2023-02-17T20:17:44;20.05;;;4.95;;
69856;SDS011;57147;53.582;10.112;2023-02-17T20:22:45;19.10;;;3.95;;
69856;SDS011;57147;53.582;10.112;2023-02-17T20:27:45;22.77;;;6.57;;
69856;SDS011;57147;53.582;10.112;2023-02-17T20:32:49;24.67;;;5.88;;
69856;SDS011;57147;53.582;10.112;2023-02-17T20:37:49;17.40;;;3.97;;
69856;SDS011;57147;53.582;10.112;2023-02-17T20:42:50;17.10;;;4.78;;
69856;SDS011;57147;53.582;10.112;2023-02-17T20:47:53;20.80;;;4.32;;
69856;SDS011;57147;53.582;10.112;2023-02-17T20:52:54;18.42;;;5.97;;
69856;SDS011;57147;53.582;10.112;2023-02-17T20:57:54;19.33;;;5.28;;
69856;SDS011;57147;53.582;10.112;2023-02-17T21:02:58;16.98;;;3.95;;
69856;SDS011;57147;53.582;10.112;2023-02-17T21:07:58;21.30;;;7.75;;
69856;SDS011;57147;53.582;10.112;2023-02-17T21:12:59;17.13;;;6.78;;
69856;SDS011;57147;53.582;10.112;2023-02-17T21:18:02;23.95;;;4.25;;
69856;SDS011;57147;53.582;10.112;2023-02-17T21:23:03;18.23;;;6.97;;
69856;SDS011;57147;53.582;10.112;2023-02-17T21:28:04;18.13;;;4.35;;
69856;SDS011;57147;53.582;10.112;2023-02-17T21:33:07;14.75;;;3.75;;
69856;SDS011;57147;53.582;10.112;2023-02-17T21:38:08;19.30;;;3.90;;
69856;SDS011;57147;53.582;10.112;2023-02-17T21:43:09;22.63;;;4.18;;
69856;SDS011;57147;53.582;10.112;2023-02-17T21:48:13;19.83;;;5.80;;
69856;SDS011;57147;53.582;10.112;2023-02-17T21:53:14;22.60;;;10.85;;
69856;SDS011;57147;53.582;10.112;2023-02-17T21:58:15;19.17;;;5.25;;
69856;SDS011;57147;53.582;10.112;2023-02-17T22:03:18;18.42;;;4.55;;
69856;SDS011;57147;53.582;10.112;2023-02-17T22:08:19;21.17;;;8.90;;
69856;SDS011;57147;53.582;10.112;2023-02-17T22:13:21;23.08;;;8.18;;
69856;SDS011;57147;53.582;10.112;2023-02-17T22:18:24;20.45;;;4.40;;
69856;SDS011;57147;53.582;10.112;2023-02-17T22:23:25;19.05;;;6.80;;
69856;SDS011;57147;53.582;10.112;2023-02-17T22:28:26;18.33;;;4.47;;
69856;SDS011;57147;53.582;10.112;2023-02-17T22:33:29;23.55;;;3.35;;
69856;SDS011;57147;53.582;10.112;2023-02-17T22:38:31;18.73;;;2.17;;
69856;SDS011;57147;53.582;10.112;2023-02-17T22:43:33;22.17;;;4.25;;
69856;SDS011;57147;53.582;10.112;2023-02-17T22:48:37;14.70;;;1.55;;
69856;SDS011;57147;53.582;10.112;2023-02-17T22:53:38;20.25;;;3.45;;
69856;SDS011;57147;53.582;10.112;2023-02-17T22:58:39;15.60;;;3.05;;
69856;SDS011;57147;53.582;10.112;2023-02-17T23:03:42;14.13;;;2.95;;
69856;SDS011;57147;53.582;10.112;2023-02-17T23:08:44;18.95;;;2.22;;
69856;SDS011;57147;53.582;10.112;2023-02-17T23:13:45;17.25;;;3.15;;
69856;SDS011;57147;53.582;10.112;2023-02-17T23:18:48;16.33;;;3.40;;
69856;SDS011;57147;53.582;10.112;2023-02-17T23:23:49;18.13;;;3.53;;
69856;SDS011;57147;53.582;10.112;2023-02-17T23:28:50;17.98;;;2.63;;
69856;SDS011;57147;53.582;10.112;2023-02-17T23:33:53;19.63;;;2.67;;
69856;SDS011;57147;53.582;10.112;2023-02-17T23:38:56;22.55;;;2.88;;
69856;SDS011;57147;53.582;10.112;2023-02-17T23:44:00;22.58;;;2.38;;
69856;SDS011;57147;53.582;10.112;2023-02-17T23:49:03;16.65;;;2.45;;
69856;SDS011;57147;53.582;10.112;2023-02-17T23:54:04;15.68;;;3.42;;
69856;SDS011;57147;53.582;10.112;2023-02-17T23:59:05;18.98;;;2.95;;
